Time;durP1;ratioP1;P1;durP2;ratioP2;P2;SDS_P1;SDS_P2;PMS_P1;PMS_P2;Temp;Humidity;BMP_temperature;BMP_pressure;BME280_temperature;BME280_humidity;BME280_pressure;Samples;Min_cycle;Max_cycle;Signal;HPM_P1;HPM_P2
2020/12/03 00:00:42;;;;;;;35.78;16.73;;;2.00;99.90;;;;;;5052011;28;20369;-52
2020/12/03 00:03:16;;;;;;;42.35;18.65;;;3.40;99.90;;;;;;5052473;28;20448;-52
2020/12/03 00:05:43;;;;;;;42.90;19.38;;;4.50;99.90;;;;;;5052739;28;20886;-53
2020/12/03 00:08:11;;;;;;;40.53;18.35;;;3.70;99.90;;;;;;5051917;28;20385;-52
2020/12/03 00:10:36;;;;;;;41.38;18.52;;;3.10;99.90;;;;;;5052821;28;20386;-52
2020/12/03 00:13:17;;;;;;;44.13;18.67;;;2.00;99.90;;;;;;5050240;28;20409;-52
2020/12/03 00:15:43;;;;;;;37.53;17.05;;;3.90;99.90;;;;;;5052021;28;20878;-52
2020/12/03 00:18:09;;;;;;;38.73;18.37;;;2.00;99.90;;;;;;5051723;28;20412;-52
2020/12/03 00:20:35;;;;;;;38.67;17.87;;;2.00;99.90;;;;;;5052563;28;20378;-52
2020/12/03 00:23:02;;;;;;;43.13;18.70;;;4.90;99.90;;;;;;5053126;28;20967;-52
2020/12/03 00:25:27;;;;;;;41.55;18.20;;;2.00;99.90;;;;;;5051521;28;20427;-54
2020/12/03 00:27:55;;;;;;;43.53;19.73;;;2.10;99.90;;;;;;5051999;28;20467;-52
2020/12/03 00:30:22;;;;;;;44.10;19.58;;;2.00;99.90;;;;;;5051983;28;20396;-52
2020/12/03 00:32:49;;;;;;;42.22;19.23;;;2.00;99.90;;;;;;5052868;28;21231;-52
2020/12/03 00:35:16;;;;;;;41.53;19.67;;;2.10;99.90;;;;;;5052009;28;20921;-52
2020/12/03 00:37:42;;;;;;;47.10;20.25;;;2.10;99.90;;;;;;5052263;28;20400;-52
2020/12/03 00:40:08;;;;;;;41.42;20.33;;;2.10;99.90;;;;;;5053255;28;20392;-52
2020/12/03 00:42:33;;;;;;;40.85;19.13;;;4.80;99.90;;;;;;5052302;28;20378;-52
2020/12/03 00:44:59;;;;;;;50.70;20.08;;;2.00;99.90;;;;;;5052885;28;20997;-52
2020/12/03 00:47:25;;;;;;;44.90;20.57;;;2.60;99.90;;;;;;5053146;28;20378;-52
2020/12/03 00:49:50;;;;;;;49.30;20.10;;;1.80;99.90;;;;;;5052063;28;20473;-52
2020/12/03 00:52:16;;;;;;;41.55;19.38;;;1.70;99.90;;;;;;5052983;28;20389;-52
2020/12/03 00:54:43;;;;;;;45.93;20.40;;;4.40;99.90;;;;;;5052202;28;20420;-53
2020/12/03 00:57:10;;;;;;;48.63;20.20;;;1.90;99.90;;;;;;5052765;28;20384;-52
2020/12/03 00:59:39;;;;;;;45.22;20.33;;;4.50;99.90;;;;;;5052067;28;20386;-52
2020/12/03 01:02:09;;;;;;;44.00;19.77;;;1.80;99.90;;;;;;5051586;28;20369;-51
2020/12/03 01:04:35;;;;;;;44.70;20.20;;;2.60;99.90;;;;;;5064553;28;20494;-52
2020/12/03 01:07:00;;;;;;;49.17;20.88;;;3.90;99.90;;;;;;5072828;28;20718;-52
2020/12/03 01:09:26;;;;;;;49.20;21.43;;;3.50;99.90;;;;;;5073092;28;20375;-52
2020/12/03 01:11:52;;;;;;;43.83;20.65;;;2.70;99.90;;;;;;5071421;28;20399;-52
2020/12/03 01:14:17;;;;;;;50.40;22.00;;;3.70;99.90;;;;;;5072289;28;20387;-51
2020/12/03 01:16:44;;;;;;;45.80;20.30;;;4.60;99.90;;;;;;5071436;28;20399;-52
2020/12/03 01:19:09;;;;;;;43.08;20.02;;;1.90;99.90;;;;;;5072312;28;20426;-52
2020/12/03 01:21:35;;;;;;;46.17;20.90;;;3.60;99.90;;;;;;5071500;28;20392;-52
2020/12/03 01:24:01;;;;;;;48.87;20.30;;;1.90;99.90;;;;;;5071846;28;20458;-52
2020/12/03 01:26:26;;;;;;;46.17;20.00;;;3.00;99.90;;;;;;5071112;28;20374;-52
2020/12/03 01:28:52;;;;;;;47.73;20.23;;;3.10;99.90;;;;;;5071508;28;20374;-53
2020/12/03 01:31:17;;;;;;;40.07;19.30;;;2.00;99.90;;;;;;5072402;28;20845;-53
2020/12/03 01:33:43;;;;;;;43.42;20.70;;;3.00;99.90;;;;;;5071368;28;20384;-53
2020/12/03 01:36:12;;;;;;;36.13;17.55;;;2.00;99.90;;;;;;5071862;28;20733;-53
2020/12/03 01:38:38;;;;;;;45.05;21.05;;;2.40;99.90;;;;;;5071479;28;20375;-52
2020/12/03 01:41:04;;;;;;;45.63;21.07;;;3.70;99.90;;;;;;5072308;28;20786;-53
2020/12/03 01:43:29;;;;;;;43.90;20.40;;;4.10;99.90;;;;;;5071841;28;20462;-52
2020/12/03 01:46:00;;;;;;;43.25;20.85;;;2.20;99.90;;;;;;5071269;28;20383;-53
2020/12/03 01:48:44;;;;;;;42.45;20.13;;;4.80;99.90;;;;;;5071601;28;20470;-52
2020/12/03 01:51:14;;;;;;;40.00;18.85;;;2.10;99.90;;;;;;5072062;28;20717;-53
2020/12/03 01:53:40;;;;;;;45.03;20.88;;;4.30;99.90;;;;;;5070992;28;20723;-52
2020/12/03 01:56:35;;;;;;;41.75;19.63;;;1.90;99.90;;;;;;5071728;28;20382;-52
2020/12/03 01:59:02;;;;;;;45.42;19.33;;;2.00;99.90;;;;;;5070905;28;20387;-52
2020/12/03 02:01:30;;;;;;;41.30;19.25;;;2.00;99.90;;;;;;5071355;28;20463;-52
2020/12/03 02:03:56;;;;;;;43.40;19.67;;;2.00;99.90;;;;;;5071231;28;20446;-52
2020/12/03 02:06:27;;;;;;;46.37;20.03;;;2.80;99.90;;;;;;5069854;28;20419;-53
2020/12/03 02:08:53;;;;;;;45.30;18.75;;;1.90;99.90;;;;;;5070773;28;20527;-53
2020/12/03 02:11:21;;;;;;;46.58;19.75;;;4.50;99.90;;;;;;5052188;28;20462;-53
2020/12/03 02:14:02;;;;;;;49.08;19.52;;;1.70;99.90;;;;;;5050538;28;20381;-52
2020/12/03 02:16:33;;;;;;;44.83;20.65;;;1.70;99.90;;;;;;5051452;28;20381;-52
2020/12/03 02:18:58;;;;;;;46.92;20.75;;;1.70;99.90;;;;;;5051069;28;20480;-52
2020/12/03 02:21:24;;;;;;;38.10;19.00;;;4.20;99.90;;;;;;5051053;28;20938;-52
2020/12/03 02:23:50;;;;;;;48.33;21.33;;;1.70;99.90;;;;;;5050304;28;21072;-52
2020/12/03 02:26:16;;;;;;;44.58;21.80;;;3.60;99.90;;;;;;5051073;28;20516;-52
2020/12/03 02:28:42;;;;;;;44.58;20.08;;;1.80;99.90;;;;;;5048671;28;20402;-52
2020/12/03 02:31:08;;;;;;;44.60;21.90;;;1.80;99.90;;;;;;5050972;28;20465;-52
2020/12/03 02:33:34;;;;;;;45.90;20.50;;;1.80;99.90;;;;;;5049663;28;20452;-53
2020/12/03 02:36:00;;;;;;;47.77;20.47;;;2.30;99.90;;;;;;5049761;28;20420;-53
2020/12/03 02:38:29;;;;;;;47.05;20.67;;;4.50;99.90;;;;;;5050956;28;20385;-52
2020/12/03 02:40:56;;;;;;;49.75;21.10;;;3.70;99.90;;;;;;5047755;28;20475;-54
2020/12/03 02:43:22;;;;;;;46.07;21.50;;;4.30;99.90;;;;;;5049396;28;20475;-52
2020/12/03 02:45:47;;;;;;;51.67;21.40;;;1.80;99.90;;;;;;5049865;28;20389;-52
2020/12/03 02:48:13;;;;;;;46.60;22.15;;;2.00;99.90;;;;;;5049138;28;20755;-52
2020/12/03 02:50:38;;;;;;;49.25;21.50;;;1.70;99.90;;;;;;5049158;28;20485;-52
2020/12/03 02:53:04;;;;;;;51.90;22.53;;;1.70;99.90;;;;;;5048608;28;20488;-52
2020/12/03 02:55:30;;;;;;;50.42;21.48;;;1.80;99.90;;;;;;5050271;28;20924;-53
2020/12/03 02:57:55;;;;;;;49.00;22.10;;;1.70;99.90;;;;;;5049588;28;20377;-52
2020/12/03 03:00:21;;;;;;;48.90;22.13;;;3.30;99.90;;;;;;5048139;28;20401;-52
2020/12/03 03:02:48;;;;;;;56.90;24.92;;;3.50;99.90;;;;;;5049661;28;20879;-53
2020/12/03 03:05:15;;;;;;;48.25;21.52;;;2.00;99.90;;;;;;5049753;28;20492;-52
2020/12/03 03:07:41;;;;;;;51.42;23.20;;;2.80;99.90;;;;;;5048446;28;20393;-52
2020/12/03 03:10:07;;;;;;;56.25;22.77;;;1.80;99.90;;;;;;5049446;28;20443;-52
2020/12/03 03:12:32;;;;;;;51.63;23.15;;;1.80;99.90;;;;;;5048986;28;20393;-56
2020/12/03 03:14:58;;;;;;;53.60;22.67;;;2.20;99.90;;;;;;5049500;28;20395;-52
2020/12/03 03:17:24;;;;;;;56.00;24.50;;;1.80;99.90;;;;;;5048019;28;20465;-52
2020/12/03 03:19:49;;;;;;;51.72;22.90;;;1.80;99.90;;;;;;5049063;28;20388;-52
2020/12/03 03:22:17;;;;;;;53.03;23.50;;;1.80;99.90;;;;;;5047907;28;20401;-52
2020/12/03 03:24:42;;;;;;;49.17;22.50;;;1.80;99.90;;;;;;5048153;28;20425;-52
2020/12/03 03:27:08;;;;;;;52.47;24.17;;;1.90;99.90;;;;;;5046982;28;20982;-52
2020/12/03 03:29:34;;;;;;;46.10;21.90;;;2.90;99.90;;;;;;5049666;28;20410;-56
2020/12/03 03:31:59;;;;;;;52.90;23.43;;;4.70;99.90;;;;;;5047612;28;20429;-52
2020/12/03 03:34:25;;;;;;;55.08;22.40;;;4.20;99.90;;;;;;5049994;28;20397;-52
2020/12/03 03:36:50;;;;;;;51.85;22.55;;;4.40;99.90;;;;;;5049319;28;20389;-52
2020/12/03 03:39:19;;;;;;;55.33;23.37;;;4.60;99.90;;;;;;5048385;28;20444;-52
2020/12/03 03:41:45;;;;;;;49.53;23.85;;;3.00;99.90;;;;;;5048399;28;20373;-52
2020/12/03 03:44:11;;;;;;;53.10;23.65;;;3.80;99.90;;;;;;5048775;28;20409;-52
2020/12/03 03:46:36;;;;;;;58.80;24.38;;;2.00;99.90;;;;;;5047332;28;21003;-55
2020/12/03 03:49:03;;;;;;;55.77;24.80;;;3.40;99.90;;;;;;5049780;28;20470;-53
2020/12/03 03:51:29;;;;;;;52.95;23.00;;;2.00;99.90;;;;;;5049559;28;20871;-53
2020/12/03 03:53:54;;;;;;;54.33;22.98;;;1.90;99.90;;;;;;5047485;28;20486;-53
2020/12/03 03:56:20;;;;;;;55.08;24.13;;;1.80;99.90;;;;;;5048566;28;20482;-52
2020/12/03 03:58:46;;;;;;;52.40;23.43;;;1.80;99.90;;;;;;5046709;28;20401;-56
2020/12/03 04:01:11;;;;;;;58.27;24.80;;;4.30;99.90;;;;;;5048360;28;20443;-53
2020/12/03 04:03:37;;;;;;;60.28;25.17;;;4.60;99.90;;;;;;5047495;28;20492;-53
2020/12/03 04:06:03;;;;;;;53.07;23.80;;;1.70;99.90;;;;;;5049535;28;20859;-53
2020/12/03 04:08:29;;;;;;;52.05;22.73;;;1.60;99.90;;;;;;5047994;28;20875;-53
2020/12/03 04:10:55;;;;;;;51.72;24.08;;;2.40;99.90;;;;;;5048157;28;20447;-52
2020/12/03 04:13:23;;;;;;;53.67;24.17;;;1.60;99.90;;;;;;5049561;28;20409;-52
2020/12/03 04:15:49;;;;;;;60.28;23.80;;;3.60;99.90;;;;;;5047138;28;20733;-52
2020/12/03 04:18:16;;;;;;;54.05;23.15;;;2.90;99.90;;;;;;5049747;28;20385;-52
2020/12/03 04:20:42;;;;;;;57.43;25.57;;;2.30;99.90;;;;;;5047054;28;20484;-53
2020/12/03 04:23:08;;;;;;;58.75;25.15;;;2.80;99.90;;;;;;5048107;28;20441;-52
2020/12/03 04:25:34;;;;;;;54.90;24.05;;;3.20;99.90;;;;;;5046852;28;20444;-56
2020/12/03 04:28:00;;;;;;;59.30;25.20;;;1.60;99.90;;;;;;5081845;28;20435;-52
2020/12/03 04:30:26;;;;;;;51.85;23.48;;;1.60;99.90;;;;;;5047624;28;20443;-52
2020/12/03 04:32:52;;;;;;;54.15;23.23;;;1.60;99.90;;;;;;5048796;28;20381;-52
2020/12/03 04:35:18;;;;;;;49.90;22.55;;;1.80;99.90;;;;;;5047820;28;20404;-52
2020/12/03 04:37:48;;;;;;;54.47;23.73;;;1.50;99.90;;;;;;5050491;28;20374;-52
2020/12/03 04:40:28;;;;;;;53.65;23.13;;;3.60;99.90;;;;;;5053292;28;20431;-52
2020/12/03 04:42:56;;;;;;;51.57;24.17;;;3.80;99.90;;;;;;5052300;28;20412;-52
2020/12/03 04:45:49;;;;;;;50.83;23.40;;;1.70;99.90;;;;;;5053073;28;20377;-53
2020/12/03 04:48:35;;;;;;;52.97;23.83;;;1.80;99.90;;;;;;5052677;28;20465;-52
2020/12/03 04:51:38;;;;;;;46.85;22.33;;;1.80;99.90;;;;;;5052645;28;20460;-52
2020/12/03 04:54:27;;;;;;;49.90;23.08;;;1.80;99.90;;;;;;5052780;28;20400;-52
2020/12/03 04:57:38;;;;;;;54.25;22.35;;;1.90;99.90;;;;;;5054783;28;20970;-52
2020/12/03 05:00:23;;;;;;;47.97;20.77;;;1.90;99.90;;;;;;5045410;28;20397;-52
2020/12/03 05:03:10;;;;;;;49.38;22.90;;;2.00;99.90;;;;;;5051839;28;20465;-52
2020/12/03 05:05:57;;;;;;;44.73;21.43;;;2.10;99.90;;;;;;5067703;28;20865;-56
2020/12/03 05:08:54;;;;;;;44.35;20.65;;;2.10;99.90;;;;;;5073327;28;20533;-52
2020/12/03 05:11:28;;;;;;;44.60;20.40;;;2.10;99.90;;;;;;5072478;28;20384;-53
2020/12/03 05:14:00;;;;;;;51.53;22.30;;;2.50;99.90;;;;;;5071530;28;20857;-52
2020/12/03 05:16:52;;;;;;;44.13;22.55;;;4.50;99.90;;;;;;5072457;28;20455;-53
2020/12/03 05:19:37;;;;;;;51.50;22.00;;;2.10;99.90;;;;;;5067601;28;20962;-52
2020/12/03 05:22:18;;;;;;;46.50;20.63;;;2.30;99.90;;;;;;5044071;28;20401;-52
2020/12/03 05:24:44;;;;;;;41.78;20.35;;;2.30;99.90;;;;;;5031548;28;20414;-53
2020/12/03 05:27:24;;;;;;;44.80;21.05;;;2.40;99.90;;;;;;5031281;28;20437;-53
2020/12/03 05:29:50;;;;;;;44.47;20.10;;;2.50;99.90;;;;;;5030586;28;20380;-54
2020/12/03 05:32:15;;;;;;;39.00;19.30;;;2.50;99.90;;;;;;5031898;28;20714;-53
2020/12/03 05:34:41;;;;;;;48.37;21.47;;;4.30;99.90;;;;;;5041630;28;20418;-53
2020/12/03 05:37:16;;;;;;;47.70;22.52;;;3.00;99.90;;;;;;5032119;28;20379;-53
2020/12/03 05:39:45;;;;;;;42.90;19.77;;;2.60;99.90;;;;;;5038436;28;20804;-53
2020/12/03 05:42:15;;;;;;;46.20;21.60;;;2.50;99.90;;;;;;5034754;28;20909;-53
2020/12/03 05:44:56;;;;;;;42.08;20.40;;;2.80;99.90;;;;;;5031474;28;20407;-52
2020/12/03 05:47:27;;;;;;;33.47;17.10;;;2.60;99.90;;;;;;5043139;28;20477;-51
2020/12/03 05:50:10;;;;;;;37.07;17.40;;;4.30;99.90;;;;;;5029798;28;20414;-53
2020/12/03 05:52:37;;;;;;;36.60;16.63;;;2.60;99.90;;;;;;5038788;28;20386;-57
2020/12/03 05:55:11;;;;;;;34.30;16.08;;;4.00;99.90;;;;;;5051389;28;20390;-52
2020/12/03 05:57:40;;;;;;;37.63;17.35;;;2.80;99.90;;;;;;5050544;28;20927;-57
2020/12/03 06:00:13;;;;;;;37.15;17.90;;;2.70;99.90;;;;;;5042834;28;20479;-52
2020/12/03 06:03:04;;;;;;;32.42;15.52;;;2.80;99.90;;;;;;5031169;28;20387;-52
2020/12/03 06:05:45;;;;;;;33.53;16.80;;;2.90;99.90;;;;;;5031478;28;20465;-52
2020/12/03 06:08:52;;;;;;;39.22;17.20;;;3.00;99.90;;;;;;5031668;28;20912;-52
2020/12/03 06:11:18;;;;;;;31.40;15.07;;;3.00;99.90;;;;;;5031770;28;20390;-52
2020/12/03 06:13:55;;;;;;;31.40;15.15;;;3.60;99.90;;;;;;5037126;28;20421;-52
2020/12/03 06:16:44;;;;;;;31.05;14.55;;;3.10;99.90;;;;;;5030367;28;20391;-51
2020/12/03 06:19:34;;;;;;;29.65;14.55;;;4.20;99.90;;;;;;5030923;28;20827;-53
2020/12/03 06:22:10;;;;;;;28.70;14.18;;;3.00;99.90;;;;;;5030285;28;20405;-53
2020/12/03 06:24:53;;;;;;;29.05;14.52;;;2.90;99.90;;;;;;5030635;28;21020;-56
2020/12/03 06:27:24;;;;;;;26.50;13.10;;;2.90;99.90;;;;;;5032492;28;20375;-52
2020/12/03 06:30:02;;;;;;;24.15;13.20;;;2.70;99.90;;;;;;5070258;28;20433;-52
2020/12/03 06:32:52;;;;;;;25.43;12.13;;;4.50;99.90;;;;;;5070840;28;20414;-53
2020/12/03 06:35:21;;;;;;;24.17;12.20;;;2.60;99.90;;;;;;5064340;28;20433;-53
2020/12/03 06:38:16;;;;;;;21.52;11.65;;;3.80;99.90;;;;;;5049817;28;20401;-54
2020/12/03 06:40:53;;;;;;;24.80;11.90;;;2.70;99.90;;;;;;5050225;28;20546;-53
2020/12/03 06:43:28;;;;;;;21.63;11.80;;;2.70;99.90;;;;;;5049512;28;20420;-53
2020/12/03 06:46:29;;;;;;;23.27;11.33;;;4.70;99.90;;;;;;5049456;28;20389;-53
2020/12/03 06:49:32;;;;;;;21.27;10.98;;;2.80;99.90;;;;;;5048949;28;20416;-53
2020/12/03 06:52:16;;;;;;;20.33;10.55;;;2.80;99.90;;;;;;5049144;28;20686;-52
2020/12/03 06:54:49;;;;;;;23.13;10.15;;;5.30;99.90;;;;;;5049425;28;20485;-52
2020/12/03 06:57:49;;;;;;;17.02;8.98;;;2.80;99.90;;;;;;5043835;28;20405;-53
2020/12/03 07:00:48;;;;;;;19.17;10.10;;;2.80;99.90;;;;;;5049209;28;20774;-54
2020/12/03 07:03:32;;;;;;;16.95;9.20;;;2.90;99.90;;;;;;5049876;28;20454;-52
2020/12/03 07:06:23;;;;;;;17.58;9.40;;;2.90;99.90;;;;;;5046646;28;20401;-52
2020/12/03 07:08:48;;;;;;;17.52;9.55;;;3.00;99.90;;;;;;5048982;28;20382;-52
2020/12/03 07:11:23;;;;;;;17.15;8.20;;;4.00;99.90;;;;;;5048372;28;20498;-51
2020/12/03 07:14:16;;;;;;;16.45;8.32;;;2.90;99.90;;;;;;5048819;28;20476;-52
2020/12/03 07:17:00;;;;;;;14.70;7.22;;;2.90;99.90;;;;;;5047838;28;20413;-53
2020/12/03 07:19:38;;;;;;;18.70;8.38;;;3.00;99.90;;;;;;5049189;28;20752;-52
2020/12/03 07:22:35;;;;;;;17.08;8.60;;;2.90;99.90;;;;;;5049834;28;20404;-52
2020/12/03 07:25:03;;;;;;;13.93;7.30;;;2.90;99.90;;;;;;5045248;28;20511;-52
2020/12/03 07:28:09;;;;;;;12.60;6.70;;;4.40;99.90;;;;;;5048212;28;20786;-52
2020/12/03 07:30:48;;;;;;;13.63;7.30;;;2.80;99.90;;;;;;5047873;28;20531;-52
2020/12/03 07:33:37;;;;;;;12.65;7.50;;;2.80;99.90;;;;;;5048886;28;20417;-53
2020/12/03 07:36:25;;;;;;;16.13;7.90;;;2.80;99.90;;;;;;5048160;28;20401;-51
2020/12/03 07:39:13;;;;;;;16.23;7.88;;;2.80;99.90;;;;;;5048815;28;20432;-52
2020/12/03 07:41:56;;;;;;;14.70;7.50;;;2.80;99.90;;;;;;5047055;28;20408;-56
2020/12/03 07:44:32;;;;;;;14.98;6.88;;;4.80;99.90;;;;;;5049565;28;20421;-52
2020/12/03 07:47:30;;;;;;;11.90;7.05;;;2.80;99.90;;;;;;5046913;28;20468;-52
2020/12/03 07:49:57;;;;;;;14.65;7.90;;;2.80;99.90;;;;;;5048311;28;20390;-51
2020/12/03 07:52:29;;;;;;;15.90;7.95;;;2.80;99.90;;;;;;5046159;28;20409;-52
2020/12/03 07:55:21;;;;;;;14.55;7.38;;;2.80;99.90;;;;;;5048350;28;20432;-52
2020/12/03 07:57:51;;;;;;;14.02;7.63;;;2.80;99.90;;;;;;5046128;28;20408;-52
2020/12/03 08:00:51;;;;;;;15.15;7.78;;;4.80;99.90;;;;;;5049102;28;20427;-52
2020/12/03 08:03:39;;;;;;;14.90;7.47;;;2.70;99.90;;;;;;5045510;28;20453;-53
2020/12/03 08:06:13;;;;;;;13.32;7.78;;;2.70;99.90;;;;;;5048485;28;20838;-52
2020/12/03 08:08:41;;;;;;;13.75;7.40;;;3.70;99.90;;;;;;5048592;28;20887;-56
2020/12/03 08:11:40;;;;;;;14.27;7.30;;;3.20;99.90;;;;;;5047479;28;20451;-52
2020/12/03 08:14:28;;;;;;;13.20;7.70;;;2.80;99.90;;;;;;5050649;28;20747;-51
2020/12/03 08:16:55;;;;;;;12.85;6.68;;;2.80;99.90;;;;;;5052374;28;20784;-51
2020/12/03 08:19:36;;;;;;;13.48;6.72;;;3.10;99.90;;;;;;5049874;28;20492;-52
2020/12/03 08:22:04;;;;;;;11.68;6.00;;;2.90;99.90;;;;;;5052896;28;20397;-52
2020/12/03 08:24:33;;;;;;;10.25;6.13;;;2.90;99.90;;;;;;5052438;28;20426;-52
2020/12/03 08:27:00;;;;;;;11.98;6.15;;;3.00;99.90;;;;;;5050231;28;21134;-52
2020/12/03 08:29:38;;;;;;;9.85;5.60;;;5.40;99.90;;;;;;5050648;28;20392;-55
2020/12/03 08:32:04;;;;;;;9.85;5.47;;;3.10;99.90;;;;;;5049662;28;20413;-53
2020/12/03 08:34:37;;;;;;;10.23;5.30;;;3.20;99.90;;;;;;5051222;28;20409;-53
2020/12/03 08:37:09;;;;;;;10.02;4.78;;;3.30;99.90;;;;;;5052698;28;20392;-53
2020/12/03 08:39:37;;;;;;;9.30;5.03;;;3.20;99.90;;;;;;5050717;28;20401;-52
2020/12/03 08:42:06;;;;;;;9.77;5.05;;;3.30;99.90;;;;;;5051641;28;20393;-53
2020/12/03 08:44:32;;;;;;;10.70;5.70;;;3.30;99.90;;;;;;5051855;28;20413;-53
2020/12/03 08:47:05;;;;;;;11.23;5.47;;;3.80;99.90;;;;;;5050223;28;20694;-52
2020/12/03 08:49:32;;;;;;;9.95;5.00;;;4.20;99.90;;;;;;5052309;28;20369;-53
2020/12/03 08:51:59;;;;;;;8.20;4.85;;;3.40;99.90;;;;;;5050402;28;20527;-52
2020/12/03 08:54:26;;;;;;;8.40;4.43;;;3.70;99.90;;;;;;5051257;28;20794;-52
2020/12/03 08:56:57;;;;;;;9.18;4.45;;;3.80;99.90;;;;;;5051579;28;20381;-54
2020/12/03 08:59:33;;;;;;;9.03;4.90;;;3.90;99.90;;;;;;5050731;28;20393;-52
2020/12/03 09:02:16;;;;;;;8.75;4.13;;;3.70;99.90;;;;;;5049569;28;21091;-53
2020/12/03 09:04:52;;;;;;;8.45;4.15;;;3.80;99.90;;;;;;5051146;28;20536;-53
2020/12/03 09:07:21;;;;;;;8.35;4.05;;;3.90;99.90;;;;;;5052298;28;20380;-52
2020/12/03 09:09:48;;;;;;;11.18;5.00;;;3.80;99.90;;;;;;5050111;28;20486;-53
2020/12/03 09:12:34;;;;;;;8.93;4.90;;;3.80;99.90;;;;;;5052124;28;20382;-52
2020/12/03 09:15:03;;;;;;;10.40;4.78;;;3.70;99.90;;;;;;5048623;28;20478;-52
2020/12/03 09:17:33;;;;;;;11.43;5.20;;;3.70;99.90;;;;;;5051425;28;20432;-52
2020/12/03 09:20:07;;;;;;;10.20;5.60;;;3.80;99.90;;;;;;5048138;28;20453;-52
2020/12/03 09:22:35;;;;;;;17.40;10.30;;;3.80;99.90;;;;;;5051218;28;20804;-52
2020/12/03 09:25:09;;;;;;;16.38;9.13;;;3.70;99.90;;;;;;5048163;28;20428;-52
2020/12/03 09:27:46;;;;;;;12.80;6.60;;;3.70;99.90;;;;;;5051830;28;20777;-52
2020/12/03 09:30:20;;;;;;;14.45;6.45;;;3.90;99.90;;;;;;5051371;28;20378;-54
2020/12/03 09:33:00;;;;;;;13.05;7.07;;;3.80;99.90;;;;;;5049313;28;20402;-52
2020/12/03 09:35:32;;;;;;;13.03;6.70;;;3.90;99.90;;;;;;5050698;28;20393;-52
2020/12/03 09:38:05;;;;;;;21.42;11.55;;;4.10;99.90;;;;;;5048459;28;21326;-52
2020/12/03 09:40:33;;;;;;;12.00;6.80;;;4.20;99.90;;;;;;5051696;28;20377;-52
2020/12/03 09:43:00;;;;;;;14.40;8.05;;;4.00;99.90;;;;;;5049085;28;20389;-52
2020/12/03 09:45:32;;;;;;;19.33;10.57;;;4.00;99.90;;;;;;5050737;28;20377;-53
2020/12/03 09:48:00;;;;;;;17.45;10.18;;;4.30;99.90;;;;;;5050883;28;20378;-52
2020/12/03 09:50:27;;;;;;;22.57;11.30;;;4.60;99.90;;;;;;5049017;28;20442;-53
2020/12/03 09:52:54;;;;;;;15.15;8.30;;;4.80;99.90;;;;;;5050741;28;20393;-52
2020/12/03 09:55:20;;;;;;;12.13;8.10;;;4.90;99.90;;;;;;5049350;28;20447;-52
2020/12/03 09:57:56;;;;;;;9.75;5.93;;;5.00;99.90;;;;;;5048419;28;20814;-52
2020/12/03 10:00:30;;;;;;;13.77;6.95;;;5.60;99.90;;;;;;5050879;28;20851;-51
2020/12/03 10:03:12;;;;;;;13.60;7.30;;;4.60;99.90;;;;;;5047761;28;20400;-52
2020/12/03 10:06:03;;;;;;;15.47;8.43;;;4.40;99.90;;;;;;5049338;28;20844;-52
2020/12/03 10:08:29;;;;;;;13.50;7.60;;;4.50;99.90;;;;;;5051073;28;20428;-52
2020/12/03 10:11:12;;;;;;;16.87;7.93;;;4.60;99.90;;;;;;5050013;28;20786;-52
2020/12/03 10:14:21;;;;;;;15.55;8.40;;;4.80;99.90;;;;;;5049341;28;20402;-55
2020/12/03 10:16:51;;;;;;;19.13;8.57;;;4.70;99.90;;;;;;5049814;28;20393;-52
2020/12/03 10:19:18;;;;;;;14.63;7.80;;;4.50;99.90;;;;;;5049023;28;20427;-52
2020/12/03 10:21:52;;;;;;;14.98;8.20;;;5.80;99.90;;;;;;5047063;28;20401;-52
2020/12/03 10:24:25;;;;;;;14.15;8.20;;;4.70;99.90;;;;;;5050684;28;20950;-52
2020/12/03 10:27:20;;;;;;;16.13;9.70;;;4.30;99.90;;;;;;5050136;28;20385;-53
2020/12/03 10:30:00;;;;;;;17.30;8.88;;;4.50;99.90;;;;;;5047695;28;20413;-52
2020/12/03 10:32:27;;;;;;;17.70;9.63;;;6.20;99.90;;;;;;5050210;28;20420;-52
2020/12/03 10:34:54;;;;;;;14.00;9.02;;;5.00;99.90;;;;;;5049059;28;20753;-51
2020/12/03 10:37:34;;;;;;;15.35;7.97;;;4.80;99.90;;;;;;5048990;28;20417;-52
2020/12/03 10:40:20;;;;;;;17.30;9.07;;;4.90;99.90;;;;;;5049653;28;20397;-52
2020/12/03 10:43:25;;;;;;;15.93;9.17;;;5.10;99.90;;;;;;5048714;28;20450;-52
2020/12/03 10:45:55;;;;;;;15.10;8.25;;;5.20;99.90;;;;;;5040475;28;20489;-52
2020/12/03 10:48:25;;;;;;;17.42;9.10;;;5.00;99.90;;;;;;5048852;28;20412;-52
2020/12/03 10:50:58;;;;;;;14.10;8.30;;;4.80;99.90;;;;;;5049190;28;20451;-53
2020/12/03 10:53:29;;;;;;;14.57;7.10;;;4.90;99.90;;;;;;5049466;28;20432;-52
2020/12/03 10:56:02;;;;;;;12.95;7.00;;;4.70;99.90;;;;;;5048577;28;20393;-54
2020/12/03 10:58:49;;;;;;;12.25;6.32;;;4.40;99.90;;;;;;5048453;28;20466;-52
2020/12/03 11:01:24;;;;;;;11.35;6.32;;;4.40;99.90;;;;;;5048196;28;20873;-52
2020/12/03 11:03:52;;;;;;;10.88;6.85;;;4.40;99.90;;;;;;5049083;28;20405;-52
2020/12/03 11:06:27;;;;;;;14.35;7.57;;;4.30;99.90;;;;;;5048010;28;20393;-51
2020/12/03 11:08:54;;;;;;;13.32;6.68;;;4.40;99.90;;;;;;5049056;28;20472;-53
2020/12/03 11:11:21;;;;;;;11.67;6.13;;;4.40;99.90;;;;;;5048065;28;20424;-52
2020/12/03 11:13:46;;;;;;;12.50;6.80;;;4.40;99.90;;;;;;5048806;28;20456;-51
2020/12/03 11:16:17;;;;;;;14.10;7.65;;;6.60;99.90;;;;;;5047943;28;20891;-52
2020/12/03 11:18:50;;;;;;;13.02;8.45;;;4.30;99.90;;;;;;5048741;28;20381;-56
2020/12/03 11:21:23;;;;;;;12.95;7.03;;;4.50;99.90;;;;;;5047569;28;20401;-51
2020/12/03 11:24:10;;;;;;;12.05;6.30;;;4.50;99.90;;;;;;5048963;28;20424;-52
2020/12/03 11:26:40;;;;;;;12.10;6.80;;;4.40;99.90;;;;;;5047329;28;20397;-52
2020/12/03 11:29:14;;;;;;;12.20;5.90;;;4.40;99.90;;;;;;5049318;28;20461;-52
2020/12/03 11:31:41;;;;;;;9.07;5.07;;;4.50;99.90;;;;;;5047638;28;20401;-56
2020/12/03 11:34:07;;;;;;;9.15;4.93;;;6.60;99.90;;;;;;5049000;28;20397;-52
2020/12/03 11:36:35;;;;;;;9.40;4.85;;;4.20;99.90;;;;;;5047241;28;20389;-52
2020/12/03 11:39:02;;;;;;;9.48;4.95;;;5.30;99.90;;;;;;5048642;28;20386;-52
2020/12/03 11:44:17;;;;;;;10.93;5.50;;;4.60;99.90;;;;;;5047384;28;20425;-52
2020/12/03 11:49:29;;;;;;;9.05;4.63;;;6.70;99.90;;;;;;5047517;28;21062;-52
2020/12/03 11:51:55;;;;;;;12.40;6.13;;;4.60;99.90;;;;;;5047151;28;20398;-53
2020/12/03 11:54:28;;;;;;;9.88;4.93;;;4.30;99.90;;;;;;5048051;28;20401;-52
2020/12/03 11:56:59;;;;;;;9.80;5.50;;;4.30;99.90;;;;;;5047112;28;20472;-52
2020/12/03 11:59:33;;;;;;;9.02;5.22;;;4.30;99.90;;;;;;5049434;28;20388;-52
2020/12/03 12:02:10;;;;;;;11.73;5.30;;;4.30;99.90;;;;;;5046964;28;20396;-52
2020/12/03 12:07:18;;;;;;;10.02;5.13;;;4.20;99.90;;;;;;5046599;28;20883;-53
2020/12/03 12:12:17;;;;;;;9.77;5.68;;;4.30;99.90;;;;;;5048266;28;20859;-52
2020/12/03 12:14:43;;;;;;;10.67;5.50;;;4.20;99.90;;;;;;5048787;28;20389;-55
2020/12/03 12:17:09;;;;;;;13.23;5.47;;;4.10;99.90;;;;;;5047473;28;20400;-54
2020/12/03 12:19:35;;;;;;;11.07;5.93;;;4.20;99.90;;;;;;5049533;28;20390;-52
2020/12/03 12:22:03;;;;;;;9.80;5.30;;;4.20;99.90;;;;;;5053321;28;20396;-51
2020/12/03 12:24:30;;;;;;;10.25;5.60;;;4.20;99.90;;;;;;5055329;28;20850;-52
2020/12/03 12:26:55;;;;;;;9.00;5.35;;;4.30;99.90;;;;;;5057848;28;20430;-52
2020/12/03 12:29:21;;;;;;;10.77;5.93;;;4.20;99.90;;;;;;5050451;28;20809;-52
2020/12/03 12:31:47;;;;;;;11.65;5.70;;;4.60;99.90;;;;;;5051277;28;20400;-52
2020/12/03 12:34:12;;;;;;;11.90;5.87;;;4.40;99.90;;;;;;5053817;28;20857;-52
2020/12/03 12:36:38;;;;;;;13.03;6.00;;;4.60;99.90;;;;;;5055304;28;20490;-51
2020/12/03 12:39:04;;;;;;;10.10;6.38;;;5.70;99.90;;;;;;5049080;28;20485;-52
2020/12/03 12:41:30;;;;;;;13.70;6.60;;;4.50;99.90;;;;;;5057077;28;20376;-50
2020/12/03 12:43:56;;;;;;;10.90;6.20;;;4.40;99.90;;;;;;5055858;28;20409;-51
2020/12/03 12:46:25;;;;;;;13.23;7.93;;;4.40;99.90;;;;;;5054207;28;20440;-51
2020/12/03 12:48:52;;;;;;;14.30;6.90;;;5.20;99.90;;;;;;5056591;28;20434;-51
2020/12/03 12:51:18;;;;;;;16.20;7.82;;;4.40;99.90;;;;;;5048313;28;20405;-51
2020/12/03 12:53:44;;;;;;;17.40;9.20;;;4.50;99.90;;;;;;5048248;28;20485;-55
2020/12/03 12:56:11;;;;;;;15.40;9.18;;;4.50;99.90;;;;;;5045183;28;20935;-51
2020/12/03 12:58:37;;;;;;;21.45;9.18;;;6.90;99.90;;;;;;5049262;28;20392;-51
2020/12/03 13:01:04;;;;;;;18.52;9.77;;;4.60;99.90;;;;;;5052337;28;20902;-51
2020/12/03 13:03:30;;;;;;;18.25;9.95;;;4.50;99.90;;;;;;5059055;28;20473;-52
2020/12/03 13:05:55;;;;;;;20.42;10.30;;;4.50;99.90;;;;;;5053406;28;20398;-52
2020/12/03 13:08:21;;;;;;;17.88;9.10;;;4.60;99.90;;;;;;5057998;28;20848;-52
2020/12/03 13:10:47;;;;;;;18.50;10.40;;;4.70;99.90;;;;;;5051792;28;20803;-55
2020/12/03 13:13:13;;;;;;;16.10;8.57;;;4.60;99.90;;;;;;5056625;28;20412;-51
2020/12/03 13:15:38;;;;;;;16.33;8.73;;;4.70;99.90;;;;;;5053824;28;20935;-54
2020/12/03 13:18:04;;;;;;;16.83;8.57;;;4.60;99.90;;;;;;5053747;28;20515;-52
2020/12/03 13:20:30;;;;;;;17.97;8.30;;;4.40;99.90;;;;;;5049923;28;20401;-52